TimeEEST,TemperatureF,Dew PointF,Humidity,Sea Level PressureIn,VisibilityMPH,Wind Direction,Wind SpeedMPH,Gust SpeedMPH,PrecipitationIn,Events,Conditions,WindDirDegrees,DateUTC
12:50 AM,71.6,46.4,41,29.92,-9999.0,Variable,3.5,-,N/A,,Clear,0,2012-09-04 21:50:00
1:50 AM,71.6,46.4,41,29.92,-9999.0,Variable,3.5,-,N/A,,Clear,0,2012-09-04 22:50:00
2:50 AM,71.6,48.2,43,29.89,-9999.0,Variable,2.3,-,N/A,,Clear,0,2012-09-04 23:50:00
3:50 AM,69.8,50.0,49,29.89,-9999.0,Variable,3.5,-,N/A,,Clear,0,2012-09-05 00:50:00
4:50 AM,69.8,51.8,53,29.89,-9999.0,Variable,3.5,-,N/A,,Clear,0,2012-09-05 01:50:00
5:50 AM,68.0,53.6,60,29.89,-9999.0,Calm,Calm,-,N/A,,Clear,0,2012-09-05 02:50:00
6:20 AM,68.0,53.6,60,29.89,-9999.0,Variable,3.5,-,N/A,,Clear,0,2012-09-05 03:20:00
6:50 AM,66.2,51.8,60,29.89,-9999.0,Variable,2.3,-,N/A,,Clear,0,2012-09-05 03:50:00
7:20 AM,69.8,51.8,53,29.89,-9999.0,NNW,4.6,-,N/A,,Clear,340,2012-09-05 04:20:00
7:50 AM,69.8,51.8,53,29.89,-9999.0,Calm,Calm,-,N/A,,Clear,0,2012-09-05 04:50:00
8:20 AM,75.2,51.8,44,29.89,-9999.0,Calm,Calm,-,N/A,,Clear,0,2012-09-05 05:20:00
8:50 AM,80.6,48.2,32,29.92,-9999.0,Calm,Calm,-,N/A,,Clear,0,2012-09-05 05:50:00
9:20 AM,82.4,48.2,30,29.92,-9999.0,Calm,Calm,-,N/A,,Clear,0,2012-09-05 06:20:00
9:50 AM,82.4,48.2,30,29.89,-9999.0,Variable,3.5,-,N/A,,Clear,0,2012-09-05 06:50:00
10:20 AM,82.4,55.4,39,29.89,-9999.0,South,4.6,-,N/A,,Clear,180,2012-09-05 07:20:00
10:50 AM,84.2,53.6,35,29.89,-9999.0,South,5.8,-,N/A,,Clear,170,2012-09-05 07:50:00
11:20 AM,86.0,53.6,33,29.89,-9999.0,South,6.9,-,N/A,,Clear,190,2012-09-05 08:20:00
11:50 AM,87.8,53.6,31,29.89,-9999.0,SSW,6.9,-,N/A,,Clear,200,2012-09-05 08:50:00
12:20 PM,87.8,57.2,35,29.89,-9999.0,South,8.1,-,N/A,,Clear,180,2012-09-05 09:20:00
12:50 PM,87.8,57.2,35,29.89,-9999.0,South,11.5,-,N/A,,Clear,190,2012-09-05 09:50:00
1:20 PM,87.8,53.6,31,29.89,-9999.0,South,9.2,-,N/A,,Clear,180,2012-09-05 10:20:00
1:50 PM,89.6,53.6,29,29.89,-9999.0,South,10.4,-,N/A,,Clear,190,2012-09-05 10:50:00
2:20 PM,89.6,51.8,27,29.89,-9999.0,South,11.5,-,N/A,,Clear,190,2012-09-05 11:20:00
2:50 PM,89.6,53.6,29,29.86,-9999.0,SSW,11.5,-,N/A,,Clear,200,2012-09-05 11:50:00
3:20 PM,89.6,55.4,31,29.86,-9999.0,South,12.7,-,N/A,,Clear,190,2012-09-05 12:20:00
3:50 PM,87.8,59.0,38,29.86,-9999.0,South,11.5,-,N/A,,Clear,190,2012-09-05 12:50:00
4:20 PM,87.8,62.6,43,29.86,-9999.0,South,12.7,-,N/A,,Clear,190,2012-09-05 13:20:00
4:50 PM,86.0,62.6,45,29.86,-9999.0,South,12.7,-,N/A,,Clear,190,2012-09-05 13:50:00
5:20 PM,84.2,64.4,51,29.86,-9999.0,South,13.8,-,N/A,,Clear,190,2012-09-05 14:20:00
5:50 PM,82.4,66.2,58,29.86,-9999.0,South,13.8,-,N/A,,Clear,190,2012-09-05 14:50:00
6:20 PM,82.4,66.2,58,29.86,-9999.0,South,13.8,-,N/A,,Clear,180,2012-09-05 15:20:00
6:50 PM,80.6,66.2,61,29.86,-9999.0,South,13.8,-,N/A,,Clear,180,2012-09-05 15:50:00
7:20 PM,78.8,68.0,69,29.86,-9999.0,South,10.4,-,N/A,,Clear,190,2012-09-05 16:20:00
7:50 PM,78.8,68.0,69,29.86,-9999.0,South,9.2,-,N/A,,Clear,180,2012-09-05 16:50:00
8:20 PM,77.0,68.0,74,29.86,-9999.0,South,5.8,-,N/A,,Clear,180,2012-09-05 17:20:00
8:50 PM,77.0,68.0,74,29.89,-9999.0,South,4.6,-,N/A,,Clear,170,2012-09-05 17:50:00
9:20 PM,77.0,68.0,74,29.89,-9999.0,Calm,Calm,-,N/A,,Clear,0,2012-09-05 18:20:00
9:50 PM,77.0,68.0,74,29.89,-9999.0,Calm,Calm,-,N/A,,Clear,0,2012-09-05 18:50:00
10:20 PM,77.0,68.0,74,29.89,-9999.0,Calm,Calm,-,N/A,,Clear,0,2012-09-05 19:20:00
10:50 PM,77.0,68.0,74,29.89,-9999.0,Calm,Calm,-,N/A,,Clear,0,2012-09-05 19:50:00
11:50 PM,73.4,66.2,78,29.89,-9999.0,Calm,Calm,-,N/A,,Clear,0,2012-09-05 20:50:00